Date,TemperatureHighF,TemperatureAvgF,TemperatureLowF,DewpointHighF,DewpointAvgF,DewpointLowF,HumidityHigh,HumidityAvg,HumidityLow,PressureMaxIn,PressureMinIn,WindSpeedMaxMPH,WindSpeedAvgMPH,GustSpeedMaxMPH,PrecipitationSumIn
2013-1-1,21,16,5,16,11,-1,86,80,76,30.32,30.16,7,2,11,0.00
2013-1-2,33,18,4,26,12,-2,81,76,70,30.30,30.18,5,1,9,0.02
2013-1-3,36,26,14,30,20,8,82,78,75,30.42,30.25,5,2,10,0.04
2013-1-4,38,23,12,30,17,7,83,76,69,30.43,30.30,6,1,14,0.03
2013-1-5,38,33,22,33,27,15,83,79,74,30.30,30.10,6,2,14,0.03
2013-1-6,35,27,19,30,21,12,82,77,71,30.37,30.11,10,3,17,0.00
2013-1-7,46,34,19,35,25,13,79,70,60,30.36,30.11,8,4,14,0.00
2013-1-8,51,45,33,36,31,24,71,58,51,30.15,30.02,9,3,17,0.00
2013-1-9,53,44,34,42,33,26,77,66,59,30.43,30.15,5,1,12,0.00
2013-1-10,48,43,38,45,36,28,89,77,65,30.41,29.73,5,2,12,0.14
2013-1-11,60,53,44,54,48,40,91,83,71,29.79,29.64,11,6,24,0.01
2013-1-12,57,38,25,48,29,19,79,70,64,30.02,29.69,9,5,21,0.00
2013-1-13,25,19,11,19,13,5,80,77,74,30.40,29.97,9,4,17,0.00
2013-1-14,24,14,5,17,8,0,80,74,69,30.54,30.40,5,1,9,0.00
2013-1-15,28,20,7,21,12,0,76,72,69,30.46,30.20,2,0,6,0.01
2013-1-16,40,26,10,29,17,3,77,69,61,30.21,30.03,7,2,16,0.05
2013-1-17,39,31,23,29,23,15,79,72,66,30.48,30.14,8,3,14,0.03
2013-1-18,54,41,23,38,28,15,75,63,48,30.48,30.07,8,5,17,0.03
2013-1-19,57,48,41,41,33,27,65,56,50,30.17,29.92,10,5,15,0.00
2013-1-20,42,27,20,28,15,8,63,59,56,30.37,30.17,10,4,19,0.00
2013-1-21,20,16,13,9,4,-1,66,59,53,30.43,30.35,10,5,16,0.00
2013-1-22,22,16,12,10,3,-1,63,57,54,30.51,30.37,4,1,6,0.00
2013-1-23,42,26,12,29,15,3,72,63,55,30.42,30.18,8,3,13,0.00
2013-1-24,25,19,10,12,7,0,64,60,57,30.59,30.24,9,3,13,0.00
2013-1-25,41,31,24,25,18,12,62,57,50,30.26,30.14,7,2,11,0.00
2013-1-26,42,31,21,28,18,11,66,59,50,30.39,30.23,5,1,10,0.00
2013-1-27,54,42,30,50,35,16,86,76,56,30.24,29.83,12,6,17,0.17
2013-1-28,73,62,54,65,56,50,89,82,74,29.89,29.72,11,4,20,0.00
2013-1-29,65,57,40,59,53,37,92,87,78,29.72,29.38,9,4,20,1.69
2013-1-30,40,30,24,37,27,20,92,90,85,29.95,29.33,11,6,21,0.10
2013-1-31,26,19,7,22,14,1,92,81,76,30.48,29.95,13,6,25,0.00
2013-2-1,28,16,4,19,9,-2,86,74,67,30.52,30.22,8,3,15,0.00
2013-2-2,35,31,27,26,23,18,83,71,68,30.21,30.04,9,3,15,0.00
2013-2-3,39,32,26,28,23,18,81,70,60,30.25,29.93,11,4,19,0.00
2013-2-4,47,35,22,36,25,15,77,66,62,29.99,29.81,9,4,17,0.00
2013-2-5,51,34,20,41,25,13,81,71,60,30.14,29.91,9,2,16,0.00
2013-2-6,56,41,24,41,29,17,79,64,49,30.19,29.98,9,4,16,0.00
2013-2-7,48,42,34,43,34,26,92,75,52,30.12,29.86,10,3,16,0.22
2013-2-8,35,31,30,32,28,26,92,87,86,30.38,30.12,8,3,13,0.00
2013-2-9,44,35,30,38,31,26,87,84,77,30.34,29.91,10,5,19,0.12
2013-2-10,60,47,37,54,39,26,91,77,59,29.92,29.44,13,8,30,0.30
2013-2-11,46,38,27,32,26,17,66,61,55,30.15,29.78,12,5,30,0.00
2013-2-12,41,31,21,31,22,12,74,70,64,30.18,29.96,4,0,6,0.00
2013-2-13,50,40,27,37,31,20,79,68,58,29.96,29.80,8,3,14,0.00
2013-2-14,49,42,35,38,32,24,77,68,59,30.09,29.80,10,3,17,0.00
2013-2-15,37,30,20,24,18,8,69,61,50,30.32,30.09,8,4,17,0.00
2013-2-16,35,25,16,22,14,6,70,62,53,30.32,30.16,6,2,11,0.00
2013-2-17,52,40,28,34,26,17,67,58,47,30.17,29.79,9,4,20,0.00
2013-2-18,56,44,27,45,34,20,81,69,55,29.96,29.44,13,8,26,0.27
2013-2-19,29,24,20,20,15,8,75,68,60,30.36,29.96,12,6,20,0.00
2013-2-20,24,19,13,14,10,3,72,66,62,30.45,30.29,6,2,11,0.00
2013-2-21,28,23,21,24,17,12,84,76,68,30.32,29.80,5,2,11,0.00
2013-2-22,31,30,28,28,26,24,87,86,84,29.82,29.79,3,2,6,0.00
2013-2-23,31,23,11,25,17,6,83,77,75,30.06,30.02,4,1,9,0.25
2013-2-24,41,26,6,34,19,1,83,76,71,30.13,30.01,5,0,11,0.14
2013-2-25,40,33,25,32,26,19,82,76,72,30.07,29.65,10,2,16,0.05
2013-2-26,33,32,32,29,28,28,87,84,81,29.65,29.41,4,0,7,0.01
2013-2-27,31,30,28,29,28,25,92,91,90,29.95,29.73,9,5,18,0.08
2013-2-28,33,30,28,30,27,25,91,89,87,30.16,29.95,8,4,16,0.09
2013-3-1,31,28,24,27,25,20,88,87,85,30.27,30.13,7,4,13,0.06
2013-3-2,30,24,12,25,19,7,89,82,78,30.34,30.24,8,3,15,0.04
2013-3-3,35,24,9,29,18,4,84,78,75,30.25,29.95,4,2,11,0.04
2013-3-4,44,37,32,36,30,26,77,74,69,29.94,29.72,6,3,12,0.00
2013-3-5,35,32,30,29,26,23,85,78,74,30.24,29.86,13,8,23,0.04
2013-3-6,34,28,19,27,21,11,77,73,69,30.42,30.25,10,4,17,0.00
2013-3-7,41,29,17,33,22,9,79,74,70,30.41,30.28,5,1,10,0.00
2013-3-8,46,38,31,38,31,24,80,74,69,30.35,30.10,7,2,12,0.03
2013-3-9,57,46,38,47,39,30,84,76,68,30.10,29.68,14,4,20,0.99
2013-3-10,53,47,34,50,43,31,91,88,78,29.76,29.55,8,3,16,0.95
2013-3-11,34,31,28,31,28,23,92,87,83,30.00,29.73,8,5,20,0.00
2013-3-12,43,33,24,36,27,21,87,79,69,30.27,29.98,12,5,22,0.01
2013-3-13,40,33,26,28,22,17,74,66,59,30.47,30.27,9,4,19,0.00
2013-3-14,64,43,26,46,30,16,70,60,49,30.39,30.04,8,3,14,0.00
2013-3-15,76,60,32,56,44,24,79,57,42,30.07,29.63,8,2,18,0.00
2013-3-16,58,43,37,46,34,30,77,72,53,30.06,29.63,11,5,18,0.00
2013-3-17,37,33,32,30,28,26,86,82,77,30.08,29.76,8,4,16,0.46
2013-3-18,49,39,33,42,33,23,89,80,62,30.04,29.71,13,5,24,0.11
2013-3-19,43,34,27,27,21,13,67,58,46,30.23,30.03,7,2,13,0.00
2013-3-20,33,29,21,24,17,7,76,63,52,30.33,30.15,12,5,21,0.00
2013-3-21,36,26,14,23,15,3,65,60,56,30.15,29.98,3,1,7,0.00
2013-3-22,38,35,31,29,25,19,70,66,61,30.03,29.97,3,1,6,0.00
2013-3-23,47,39,34,35,29,25,73,67,59,30.05,29.86,10,3,17,0.07
2013-3-24,37,30,29,29,26,25,92,83,73,29.95,29.69,11,7,22,0.12
2013-3-25,32,29,26,29,25,22,89,87,84,30.26,29.94,9,5,16,0.04
2013-3-26,38,30,23,30,24,16,92,79,70,30.39,30.26,8,3,14,0.03
2013-3-27,42,32,19,34,24,13,80,74,68,30.40,30.27,5,1,10,0.00
2013-3-28,56,44,35,46,36,28,77,73,67,30.32,30.18,3,1,9,0.00
2013-3-29,62,48,33,51,39,26,81,71,59,30.23,30.15,4,1,10,0.00
2013-3-30,49,47,44,46,42,36,89,82,67,30.16,29.89,8,2,14,0.48
2013-3-31,63,52,43,55,45,31,92,78,58,29.95,29.86,10,3,16,0.00
2013-4-1,45,39,32,33,27,17,71,62,51,30.26,29.95,9,4,17,0.00
2013-4-2,46,35,24,30,22,13,67,58,49,30.36,30.26,5,1,14,0.00
2013-4-3,49,40,30,32,25,16,66,57,48,30.41,30.24,5,1,14,0.00
2013-4-4,58,44,30,38,28,18,69,54,42,30.25,30.04,7,1,15,0.00
2013-4-5,67,51,33,49,36,22,71,59,47,30.18,29.94,4,1,11,0.00
2013-4-6,73,62,54,50,44,38,61,52,44,29.94,29.63,14,6,26,0.00
2013-4-7,76,60,42,58,47,35,78,62,42,29.87,29.65,8,1,11,0.10
2013-4-8,75,65,52,65,58,45,85,76,66,29.76,29.64,13,3,23,0.40
2013-4-9,75,69,64,64,60,57,78,74,69,29.79,29.67,13,6,28,0.00
2013-4-10,70,55,48,62,51,45,91,86,74,29.85,29.58,10,4,19,2.29
2013-4-11,48,39,36,45,36,32,92,89,84,29.72,29.65,7,4,18,0.04
2013-4-12,42,38,34,36,32,28,84,81,77,30.01,29.71,7,3,15,0.00
2013-4-13,56,44,31,45,36,26,84,75,64,30.08,29.81,6,2,11,0.00
2013-4-14,78,64,47,56,48,37,74,59,37,29.82,29.47,14,8,31,0.39
2013-4-15,60,52,45,51,46,41,85,82,73,30.07,29.67,8,3,18,0.52
2013-4-16,47,44,41,42,40,37,87,85,82,30.16,29.96,10,4,15,0.28
2013-4-17,67,53,47,64,49,42,91,88,83,30.11,29.58,10,3,22,0.37
2013-4-18,63,49,38,60,47,34,93,91,86,29.81,29.44,11,5,20,1.22
2013-4-19,48,40,34,37,32,22,86,73,58,30.08,29.79,11,6,21,0.00
2013-4-20,53,41,27,38,29,19,75,63,53,30.29,30.08,4,1,7,0.00
2013-4-21,65,53,42,48,39,30,65,59,49,30.32,30.15,10,4,20,0.00
2013-4-22,69,58,47,49,42,37,69,55,40,30.20,29.88,8,4,14,0.00
2013-4-23,57,43,37,45,36,32,86,77,52,30.08,29.89,10,5,20,0.38
2013-4-24,51,43,34,40,35,28,88,73,60,30.23,30.05,10,4,16,0.06
2013-4-25,63,51,37,43,36,29,74,58,43,30.33,30.21,6,2,12,0.00
2013-4-26,59,53,49,49,42,36,79,68,54,30.29,30.18,9,4,18,0.11
2013-4-27,51,49,47,48,45,42,90,86,79,30.24,29.96,6,1,10,0.66
2013-4-28,65,55,49,59,51,46,92,87,79,29.98,29.83,4,2,8,0.00
2013-4-29,84,68,51,69,58,47,87,72,46,29.85,29.64,11,4,18,0.00
2013-4-30,83,74,64,64,57,47,77,57,38,29.84,29.67,10,4,17,0.00
2013-5-1,82,72,61,61,55,49,68,55,45,30.01,29.84,8,3,15,0.00
2013-5-2,66,45,36,51,38,32,85,77,60,30.23,30.01,8,5,20,0.19
2013-5-3,37,36,34,34,33,31,90,88,85,30.17,29.83,8,4,19,0.73
2013-5-4,45,40,35,42,38,33,91,90,89,30.03,29.81,4,1,10,0.02
2013-5-5,63,52,38,58,48,35,92,88,82,30.04,29.91,7,2,15,0.34
2013-5-6,72,61,53,63,55,48,92,81,67,30.02,29.94,6,2,13,0.00
2013-5-7,76,64,49,62,52,44,84,66,47,30.02,29.94,4,1,7,0.00
2013-5-8,77,64,50,63,53,43,80,68,55,29.99,29.90,5,1,10,0.04
2013-5-9,73,63,58,67,58,54,88,83,74,29.90,29.78,6,2,11,0.30
2013-5-10,60,56,48,56,53,45,91,89,87,30.00,29.82,5,1,10,0.00
2013-5-11,63,53,43,56,44,29,91,72,49,30.19,29.99,9,3,19,0.00
2013-5-12,61,48,33,39,31,23,70,52,39,30.25,30.13,6,2,14,0.00
2013-5-13,73,58,37,51,41,24,70,55,43,30.19,29.93,6,2,11,0.00
2013-5-14,89,74,58,64,56,48,74,54,37,29.93,29.74,5,2,16,0.00
2013-5-15,87,79,68,68,62,52,71,57,48,29.85,29.74,3,1,13,0.00
2013-5-16,81,70,62,69,62,53,83,75,65,29.88,29.78,12,2,23,0.00
2013-5-17,78,68,61,67,60,53,81,75,68,29.90,29.84,5,1,10,0.00
2013-5-18,82,72,61,71,64,55,87,77,65,29.93,29.76,7,2,14,0.00
2013-5-19,87,78,69,74,68,60,87,74,59,29.84,29.55,13,5,20,0.06
2013-5-20,77,67,61,68,61,55,88,82,72,29.82,29.54,13,4,24,1.96
2013-5-21,74,67,59,66,61,52,90,81,69,29.72,29.61,5,1,16,0.00
2013-5-22,66,62,57,59,55,51,86,78,72,29.86,29.63,4,1,13,0.00
2013-5-23,64,59,51,57,52,45,83,79,75,30.19,29.86,8,2,13,0.00
2013-5-24,68,58,48,54,48,40,86,70,51,30.37,30.19,7,1,12,0.00
2013-5-25,70,60,52,62,51,41,81,73,59,30.24,30.06,11,2,19,0.46
2013-5-26,81,68,59,73,62,54,89,84,74,30.10,29.90,12,2,18,1.16
2013-5-27,70,66,61,67,63,58,92,90,88,29.95,29.69,8,2,19,1.57
2013-5-28,78,72,67,73,68,63,90,87,83,29.81,29.67,10,4,16,0.07
2013-5-29,82,75,67,73,67,62,88,78,66,29.86,29.68,10,5,19,0.00
2013-5-30,80,69,63,72,63,58,88,81,71,29.76,29.62,15,5,23,1.30
2013-5-31,74,66,61,72,63,59,92,90,88,29.83,29.59,7,2,14,1.14
2013-6-1,71,66,61,67,62,55,93,87,77,29.87,29.64,5,2,14,0.01
2013-6-2,62,60,57,56,54,51,85,82,79,30.01,29.87,5,2,11,0.00
2013-6-3,70,61,51,59,53,47,87,76,64,30.07,29.93,4,0,8,0.00
2013-6-4,74,64,56,64,56,50,82,76,69,30.02,29.90,7,2,14,0.00
2013-6-5,72,65,56,66,60,50,88,83,78,29.99,29.84,4,0,12,0.02
2013-6-6,73,66,59,64,59,49,91,78,62,29.88,29.83,5,1,11,0.01
2013-6-7,72,62,52,60,54,46,85,74,64,29.93,29.86,6,1,13,0.00
2013-6-8,77,66,51,64,55,45,84,70,55,29.93,29.81,7,2,13,0.00
2013-6-9,75,68,63,68,60,57,86,78,67,29.84,29.70,7,2,13,0.11
2013-6-10,80,69,60,69,62,55,87,79,67,29.85,29.73,4,0,10,0.00
2013-6-11,87,76,62,74,68,56,85,75,63,29.86,29.77,6,1,14,0.00
2013-6-12,92,82,74,78,72,67,82,71,58,29.83,29.66,7,2,18,0.00
2013-6-13,83,76,68,69,64,57,78,67,55,29.97,29.75,8,2,16,0.00
2013-6-14,81,72,60,69,62,54,83,72,59,30.03,29.89,8,1,14,0.00
2013-6-15,86,74,67,77,68,62,88,81,75,30.02,29.85,6,1,14,0.55
2013-6-16,80,72,67,76,69,63,92,89,86,29.97,29.85,6,0,10,0.14
2013-6-17,79,73,66,75,70,62,92,89,85,29.92,29.84,9,0,14,0.13
2013-6-18,84,72,64,74,65,57,92,79,59,29.94,29.88,5,1,11,0.00
2013-6-19,84,73,61,72,64,56,86,74,58,30.02,29.94,3,0,6,0.00
2013-6-20,86,77,67,73,67,59,82,71,59,30.02,29.93,10,3,21,0.00
2013-6-21,90,82,74,79,72,66,81,74,67,29.99,29.88,10,4,17,0.00
2013-6-22,90,82,76,79,73,67,85,76,66,29.98,29.85,10,4,21,0.00
2013-6-23,87,74,69,78,68,63,87,81,70,29.95,29.83,10,4,14,0.18
2013-6-24,88,79,70,79,72,65,89,80,69,29.97,29.80,10,4,16,0.00
2013-6-25,87,81,76,78,73,69,82,77,71,29.86,29.71,10,2,16,0.00
2013-6-26,92,82,74,81,72,64,83,72,54,29.78,29.66,5,1,12,0.00
2013-6-27,88,77,66,77,69,60,84,76,66,29.89,29.76,4,0,13,0.00
2013-6-28,85,77,69,74,65,56,89,69,47,29.83,29.70,9,2,18,0.00
2013-6-29,79,71,66,65,60,56,81,69,57,29.76,29.65,11,3,18,0.00
2013-6-30,73,68,64,66,62,59,86,80,74,29.95,29.76,6,2,16,0.01
2013-7-1,79,69,59,66,59,50,87,71,53,30.00,29.93,6,2,14,0.01
2013-7-2,78,68,58,61,55,50,78,64,51,30.03,29.97,6,2,16,0.00
2013-7-3,84,69,57,68,58,50,84,69,50,30.03,29.93,3,0,8,0.00
2013-7-4,85,70,57,69,59,50,82,67,50,30.03,29.93,4,0,9,0.00
2013-7-5,86,74,62,70,62,54,82,68,49,30.00,29.90,9,2,13,0.00
2013-7-6,88,77,67,74,66,59,83,69,52,29.97,29.86,5,2,11,0.00
2013-7-7,90,80,69,76,69,62,82,70,59,29.95,29.90,5,2,12,0.00
2013-7-8,91,83,76,77,71,66,73,67,59,29.99,29.93,5,1,10,0.00
2013-7-9,93,85,75,79,73,67,79,68,58,29.97,29.82,5,1,14,0.00
2013-7-10,89,81,70,77,70,58,86,70,52,29.96,29.80,4,1,13,0.04
2013-7-11,84,73,60,68,60,53,83,66,50,30.03,29.96,3,1,13,0.00
2013-7-12,85,75,60,67,60,51,82,61,47,30.07,29.97,9,2,14,0.00
2013-7-13,81,70,57,67,59,50,81,71,60,30.06,29.96,5,0,9,0.00
2013-7-14,86,74,61,70,64,55,86,71,55,30.08,30.00,6,1,12,0.00
2013-7-15,88,78,68,77,70,62,84,76,64,30.16,30.07,5,1,10,0.01
2013-7-16,90,80,71,78,72,67,89,76,59,30.22,30.15,5,1,10,0.00
2013-7-17,93,82,72,78,72,67,86,74,58,30.26,30.12,2,0,6,0.00
2013-7-18,95,83,71,80,72,66,88,71,52,30.16,29.94,5,1,9,0.00
2013-7-19,95,84,73,77,71,66,81,65,47,29.94,29.79,3,1,11,0.00
2013-7-20,89,80,74,78,70,65,80,72,65,29.85,29.77,3,0,9,0.00
2013-7-21,81,74,68,73,68,64,87,81,71,29.87,29.78,4,1,9,0.16
2013-7-22,90,78,66,79,71,63,91,80,64,29.82,29.70,6,1,11,0.00
2013-7-23,86,76,68,75,68,60,87,76,65,29.87,29.70,10,2,19,0.01
2013-7-24,79,70,60,68,60,53,85,72,59,30.00,29.86,3,1,13,0.00
2013-7-25,84,71,56,68,60,50,84,68,54,30.07,29.98,5,1,10,0.00
2013-7-26,76,71,67,72,65,60,89,80,67,30.00,29.90,4,1,13,0.20
2013-7-27,74,64,56,61,54,44,87,72,53,30.01,29.92,6,1,12,0.00
2013-7-28,79,64,49,60,51,42,81,64,48,30.02,29.96,5,1,10,0.00
2013-7-29,70,64,54,64,57,44,88,79,63,30.10,30.01,4,0,10,0.18
2013-7-30,83,72,65,77,68,62,92,87,81,30.02,29.92,4,1,11,0.09
2013-7-31,75,71,63,70,67,58,90,85,80,30.03,29.96,5,1,12,0.00
2013-8-1,86,73,61,75,64,57,90,76,57,30.05,29.91,3,0,7,0.00
2013-8-2,77,71,68,72,66,59,91,85,75,29.92,29.83,10,1,18,0.73
2013-8-3,82,73,67,77,68,60,93,86,74,30.09,29.89,5,1,11,0.00
2013-8-4,76,70,61,68,63,56,86,78,71,30.13,30.00,4,0,9,0.00
2013-8-5,79,73,67,74,68,61,88,85,79,30.02,29.78,9,1,15,0.00
2013-8-6,86,77,70,78,72,67,92,85,76,29.84,29.75,6,1,11,0.01
2013-8-7,85,76,72,79,72,67,90,86,76,29.89,29.74,6,0,11,0.55
2013-8-8,77,71,65,73,67,62,92,88,84,29.95,29.85,4,0,11,0.01
2013-8-9,76,72,67,72,68,64,91,89,86,30.04,29.92,2,0,10,0.01
2013-8-10,82,72,64,70,64,54,91,76,56,30.13,30.03,5,1,11,0.00
2013-8-11,86,72,58,68,60,52,84,68,50,30.11,29.97,6,1,12,0.00
2013-8-12,79,71,67,75,66,58,89,84,70,30.00,29.89,10,0,12,1.03
2013-8-13,78,69,61,70,63,55,92,82,66,30.09,29.94,4,1,12,0.01
2013-8-14,74,64,54,61,54,48,83,70,56,30.17,30.08,3,0,9,0.00
2013-8-15,74,65,55,62,55,47,82,70,60,30.14,30.02,3,0,10,0.00
2013-8-16,76,65,56,63,55,48,82,71,58,30.13,30.06,4,0,7,0.00
2013-8-17,63,55,53,58,48,46,83,76,69,30.16,30.13,1,0,2,0.00
2013-8-18,73,68,65,62,59,57,76,72,68,30.07,30.05,0,0,0,0.00
2013-8-19,83,71,59,71,62,54,87,74,60,30.08,29.97,0,0,0,0.00
2013-8-20,86,74,63,74,64,56,87,72,55,30.05,29.96,0,0,0,0.00
2013-8-21,89,76,65,74,66,59,85,71,56,30.05,29.96,0,0,0,0.00
2013-8-22,88,79,69,77,70,61,87,75,67,30.04,29.96,0,0,0,0.00
2013-8-23,90,79,68,79,71,64,88,76,60,30.05,29.96,0,0,0,0.00
2013-8-25,91,80,70,66,61,57,65,53,43,30.12,30.08,3,0,7,0.00
2013-8-26,93,81,69,78,69,57,86,69,53,30.13,29.99,5,0,11,0.00
2013-8-27,94,81,70,77,67,58,87,65,42,30.02,29.91,4,1,13,0.00
2013-8-28,95,80,67,76,66,59,82,64,46,29.99,29.92,4,0,9,0.00
2013-8-29,96,81,68,79,69,60,86,67,47,30.00,29.89,3,0,9,0.00
2013-8-30,99,85,74,78,71,66,85,65,44,29.90,29.76,3,1,11,0.00
2013-8-31,98,84,76,77,72,68,79,68,50,29.78,29.68,4,1,11,0.00
2013-9-1,89,80,71,78,70,60,88,73,55,29.84,29.73,4,1,10,0.00
2013-9-2,82,69,62,67,60,54,81,72,58,29.95,29.84,5,1,11,0.00
2013-9-3,84,69,52,64,53,44,79,58,39,30.06,29.94,5,1,9,0.00
2013-9-4,88,77,56,68,59,48,81,56,40,30.12,30.03,4,0,9,0.00
2013-9-5,87,72,59,72,60,50,84,66,48,30.15,30.06,2,0,5,0.00
2013-9-6,90,75,61,72,60,49,83,62,41,30.11,29.96,5,1,12,0.00
2013-9-7,95,79,63,74,64,51,80,62,44,29.98,29.83,4,1,12,0.00
2013-9-8,88,79,72,78,70,64,87,75,63,29.91,29.79,7,2,13,0.75
2013-9-9,95,82,73,77,69,60,86,67,41,29.90,29.81,4,0,14,0.00
2013-9-10,95,81,70,75,66,59,80,62,42,30.02,29.90,3,0,13,0.00
2013-9-11,94,82,69,74,66,59,82,59,44,30.07,29.96,3,0,10,0.00
2013-9-12,85,74,62,73,63,46,85,69,48,30.08,29.95,5,1,12,0.00
2013-9-13,75,63,50,59,48,38,75,59,45,30.12,30.03,4,1,12,0.00
2013-9-14,76,62,47,56,46,36,73,57,40,30.13,29.96,6,1,12,0.00
2013-9-15,80,68,61,65,56,46,81,66,56,30.10,29.92,5,2,11,0.06
2013-9-16,68,62,57,62,56,52,87,82,74,30.25,30.09,5,2,12,0.01
2013-9-17,67,63,58,64,59,52,92,86,77,30.20,30.00,5,1,9,0.16
2013-9-18,86,74,66,77,69,63,92,83,67,30.00,29.84,8,4,18,0.00
2013-9-19,88,78,68,75,69,62,85,75,61,29.89,29.74,8,3,24,2.00
2013-9-20,69,64,53,65,60,48,92,85,76,29.92,29.81,6,2,13,0.24
2013-9-21,70,58,49,58,50,42,89,77,60,29.99,29.88,5,1,11,0.01
2013-9-22,74,60,45,62,49,40,84,69,54,30.00,29.88,3,0,10,0.00
2013-9-23,71,57,51,59,49,43,79,73,64,29.96,29.91,7,2,11,0.00
2013-9-24,79,67,56,66,57,48,82,71,57,29.87,29.73,6,1,14,0.00
2013-9-25,73,66,60,68,61,56,89,85,81,29.85,29.75,2,0,7,0.00
2013-9-26,82,69,57,71,61,53,91,78,62,29.94,29.83,9,2,16,0.00
2013-9-27,82,72,63,70,62,56,87,73,58,30.00,29.89,9,3,16,0.00
2013-9-28,74,67,58,70,62,55,89,84,74,30.02,29.85,11,3,18,0.78
2013-9-29,70,60,50,62,54,44,92,80,68,30.07,29.94,2,0,9,0.01
2013-9-30,70,60,48,65,55,42,88,83,76,29.95,29.83,7,2,13,0.00
2013-10-1,80,70,62,73,64,56,92,83,70,29.94,29.85,6,1,11,0.00
2013-10-2,84,72,60,76,66,55,90,81,68,29.99,29.86,5,1,10,0.01
2013-10-3,81,74,68,74,68,64,90,82,73,29.87,29.74,8,3,18,0.01
2013-10-4,84,76,70,75,69,64,89,80,66,29.87,29.77,9,4,17,0.00
2013-10-5,75,60,47,68,56,44,92,86,79,29.91,29.80,5,1,14,0.36
2013-10-6,53,48,41,47,44,38,90,85,81,29.91,29.81,5,1,15,0.01
2013-10-7,68,55,47,58,48,41,88,78,65,30.10,29.91,4,0,11,0.00
2013-10-8,73,58,45,59,48,39,85,69,51,30.15,30.05,8,2,14,0.00
2013-10-9,72,58,45,57,46,37,79,65,49,30.13,30.03,4,1,9,0.00
2013-10-10,76,64,49,63,52,40,75,65,56,30.07,29.93,6,1,12,0.00
2013-10-11,77,67,56,67,59,52,87,77,67,29.94,29.79,10,5,17,0.00
2013-10-12,70,62,47,60,51,35,86,69,48,30.20,29.84,7,2,16,0.04
2013-10-13,68,56,41,54,42,33,79,62,42,30.39,30.20,2,0,11,0.00
2013-10-14,66,56,44,51,42,32,75,61,50,30.32,29.96,7,2,12,0.02
2013-10-15,61,58,48,58,53,41,90,83,75,29.98,29.82,8,2,12,0.45
2013-10-16,54,48,42,46,42,36,82,78,73,30.05,29.96,5,1,9,0.03
2013-10-17,62,52,46,52,45,39,92,77,64,29.99,29.87,3,0,10,0.06
2013-10-18,52,45,40,43,38,34,84,77,67,30.07,29.91,6,2,13,0.06
2013-10-19,55,46,36,47,39,33,89,78,66,30.03,29.91,3,1,10,0.01
2013-10-20,69,55,45,52,43,37,78,65,46,29.92,29.78,4,1,13,0.00
2013-10-21,56,47,36,42,35,27,72,65,58,30.06,29.88,6,2,13,0.00
2013-10-22,59,46,35,50,38,26,81,73,63,30.03,29.79,8,3,20,0.03
2013-10-23,44,38,30,35,31,25,85,78,69,30.15,30.03,6,1,12,0.00
2013-10-24,45,38,27,36,30,18,84,73,61,30.42,30.14,9,3,18,0.00
2013-10-25,53,39,25,39,27,17,79,63,49,30.50,30.16,6,1,14,0.00
2013-10-26,59,47,32,45,33,17,71,58,46,30.17,30.05,6,2,13,0.01
2013-10-27,58,40,25,40,26,16,75,58,45,30.13,29.98,5,0,12,0.00
2013-10-28,67,48,31,50,33,22,76,57,40,30.19,30.03,4,0,10,0.00
2013-10-29,60,54,46,57,47,34,91,78,55,30.19,29.98,6,1,11,0.15
2013-10-30,70,64,60,67,62,57,93,92,90,29.99,29.72,8,2,15,0.50
2013-10-31,62,55,45,60,53,43,94,93,92,29.72,29.41,14,2,16,1.38
2013-11-1,57,49,42,51,45,38,94,87,74,29.87,29.57,17,1,17,0.01
2013-11-2,52,46,34,45,39,27,92,78,71,30.19,29.86,17,2,17,0.00
2013-11-3,57,45,30,45,36,25,85,71,59,30.25,30.03,21,4,21,0.00
2013-11-4,60,54,48,50,45,39,79,72,66,30.14,30.01,23,4,23,0.06
2013-11-5,57,55,52,54,51,47,92,86,74,30.15,29.92,24,5,24,0.31
2013-11-6,59,47,39,57,45,37,93,92,89,30.16,29.82,20,4,20,0.36
2013-11-7,53,40,30,46,34,23,92,81,69,30.38,30.29,19,1,19,0.01
2013-11-8,59,45,27,44,34,21,81,66,53,30.35,29.97,26,4,26,0.00
2013-11-9,64,50,40,44,35,28,69,57,47,30.27,30.00,10,1,10,0.00
2013-11-10,53,42,33,39,31,24,73,64,54,30.42,30.23,12,0,12,0.00
2013-11-11,61,45,28,50,36,21,77,70,63,30.57,30.13,16,3,25,0.02
2013-11-12,33,26,18,23,18,8,83,72,60,30.83,30.57,22,3,22,0.00
2013-11-13,46,35,17,27,20,7,72,54,43,30.72,30.25,18,2,18,0.00
2013-11-14,53,46,35,32,25,18,57,44,37,30.25,29.99,21,2,21,0.00
2013-11-15,56,49,43,44,36,23,79,62,45,30.00,29.80,27,4,27,0.00
2013-11-16,65,59,50,59,54,44,86,82,79,29.80,29.48,33,7,33,0.09
2013-11-17,71,60,41,63,46,28,86,63,37,29.98,29.33,33,5,33,0.00
2013-11-18,53,43,31,39,30,19,77,62,52,30.29,29.98,10,2,13,0.00
2013-11-19,52,42,29,39,29,19,76,61,51,30.32,30.12,8,3,14,0.00
2013-11-20,44,40,38,39,31,26,83,71,56,30.11,29.96,9,4,18,0.41
2013-11-21,49,47,38,45,42,34,88,83,77,30.27,30.01,7,2,13,0.35
2013-11-22,38,32,26,34,28,23,92,87,86,30.58,30.27,8,4,14,0.01
2013-11-23,27,22,14,23,16,7,87,77,72,30.79,30.57,9,4,16,0.00
2013-11-24,28,20,10,19,12,4,78,71,62,30.79,30.41,7,2,13,0.00
2013-11-25,36,32,27,22,19,16,63,59,53,30.41,30.18,5,2,11,0.00
2013-11-26,36,28,21,27,19,11,75,68,62,30.34,30.13,9,4,18,0.00
2013-11-27,29,21,15,16,11,6,69,64,59,30.43,30.24,7,3,13,0.00
2013-11-28,42,29,24,28,18,12,67,64,58,30.52,30.20,5,3,11,0.00
2013-11-29,46,32,20,33,21,10,71,64,58,30.57,30.33,6,2,12,0.00
2013-11-30,55,40,29,42,30,21,76,68,61,30.32,30.07,6,2,12,0.00
2013-12-1,54,38,25,45,30,19,81,73,65,30.13,29.91,1,0,4,0.00
2013-12-2,54,44,36,47,37,29,84,77,72,29.91,29.63,5,1,9,0.00
2013-12-3,58,48,40,53,44,36,92,85,80,29.64,29.53,10,3,13,0.00
2013-12-4,60,45,28,55,41,23,89,85,79,29.92,29.47,7,4,15,0.01
2013-12-5,27,22,20,23,15,13,83,76,71,30.35,29.92,8,5,15,0.00
2013-12-6,21,16,11,13,8,2,71,69,65,30.67,30.34,7,4,16,0.00
2013-12-7,21,14,7,12,5,-1,76,67,64,30.77,30.49,6,2,12,0.00
2013-12-8,24,21,18,20,15,8,84,76,65,30.49,30.03,4,1,10,0.00
2013-12-9,23,16,11,19,12,6,89,81,77,30.39,30.13,7,2,12,0.00
2013-12-10,35,21,8,24,13,3,79,71,63,30.34,30.24,7,2,15,0.00
2013-12-11,26,19,6,18,11,-4,75,68,61,30.67,30.29,8,2,15,0.00
2013-12-12,42,22,5,25,10,-5,70,61,50,30.65,30.24,5,1,12,0.00
2013-12-13,34,31,26,30,24,15,87,74,61,30.24,29.91,6,3,12,0.27
2013-12-14,32,29,21,29,26,18,89,88,87,30.21,29.86,0,0,5,0.00
2013-12-15,28,18,17,25,16,14,90,89,89,30.21,30.02,0,0,0,0.12
2013-12-16,30,25,22,28,23,19,92,90,90,30.13,29.99,4,1,7,0.02
2013-12-17,40,31,21,35,27,16,92,85,77,30.29,30.14,9,2,15,0.12
2013-12-18,52,38,18,41,30,14,89,72,63,30.27,29.86,8,3,17,0.02
2013-12-19,55,49,44,48,42,35,81,76,69,29.87,29.69,8,4,13,0.00
2013-12-20,54,39,28,50,35,25,90,86,81,29.89,29.64,6,3,13,0.00
2013-12-21,32,30,28,29,27,25,91,90,89,29.88,29.59,6,3,13,0.00
2013-12-22,32,28,18,30,25,15,91,90,88,30.35,29.61,0,0,6,0.00
2013-12-23,18,13,6,15,10,2,89,87,85,30.65,30.35,5,2,10,0.00
2013-12-24,25,15,2,21,11,-2,92,85,83,30.65,30.31,7,2,15,0.00
2013-12-25,33,30,25,30,27,21,90,88,84,30.34,30.24,4,2,12,0.02
2013-12-26,44,33,20,39,29,18,91,87,82,30.35,30.22,6,2,12,0.31
2013-12-27,52,40,31,44,34,27,92,80,70,30.35,30.19,4,1,9,0.09
2013-12-28,55,45,36,42,34,28,78,67,57,30.20,29.88,5,2,11,0.00
2013-12-29,40,25,14,30,16,5,75,71,63,30.32,29.85,11,5,18,0.00
2013-12-30,29,19,9,18,9,1,76,65,61,30.37,30.20,5,2,13,0.00
2013-12-31,45,35,17,32,24,9,72,64,60,30.37,30.12,7,2,14,0.00
2014-1-1,39,25,16,27,17,10,79,72,63,30.20,30.06,9,4,18,0.00
2014-1-2,16,9,-3,11,3,-10,83,76,73,30.54,30.20,7,2,14,0.00